White Mountain Summit Weather observations

Data are for 10 minute period ending at time listed.
 Day   Time   Solar   Ave.   Ave.  Ave.  Vector    Max.    Baro.  
  of    of     Rad.   Air    Rel.  Wind   Wind     Wind   Press.  
Year   Day            Temp.  Hum.  Speed  Dir.     Gust           
2015   (PST)   W/m2    F      %     mph   deg.      mph     mb.   
-------------------------------------------------------------------
  57    9:40    0.0    15   67.9    39    285.4    56.5   999.0 
  57    9:50    0.0    14   67.0    36    279.2    72.9   999.0 
  57   10:00    0.0    15   67.8    28    282.4    49.4   999.0 
  57   10:10    0.0    15   72.2    26    281.4    40.0   999.0 
  57   10:20    0.0    15   77.3    23    279.3    35.3   999.0 
  57   10:30    0.0    16   73.0    25    285.9    49.4   999.0 
  57   10:40    0.0    15   76.3    22    283.6    35.3   999.0 
  57   10:50    0.0    15   74.9    22    281.4    47.1   999.0 
  57   11:00    0.0    16   75.4    21    273.8    35.3   999.0 
  57   11:10    0.0    15   79.1    24    280.6    40.0   999.0 
  57   11:20    0.0    14   84.3    26    271.8    44.7   999.0 
  57   11:30    0.0    14   84.6    29    266.6    49.4   999.0 
  57   11:40    0.0    14   85.3    27    268.9    42.4   999.0 
  57   11:50    0.0    14   83.5    24    272.8    37.7   999.0 
  57   12:00    0.0    15   80.9    21    275.4    44.7   999.0 
  57   12:10    0.0    15   81.5    26    276.9    40.0   999.0 
  57   12:20    0.0    16   80.1    23    275.2    37.7   999.0 
  57   12:30    0.0    15   82.8    27    268.8    37.7   999.0 
  57   12:40    0.0    15   80.9    30    268.3    47.1   999.0 
  57   12:50    0.0    16   79.1    28    267.5    40.0   999.0 
  57   13:00    0.0    16   79.0    28    267.2    44.7   999.0 
  57   13:10    0.0    16   76.4    27    265.8    47.1   999.0 
  57   13:20    0.0    17   74.6    32    265.5    42.4   999.0 
  57   13:30    0.0    17   75.0    21    266.9    37.7   999.0 
  57   13:40    0.0    17   72.0    32    265.4    40.0   999.0 
  57   13:50    0.0    18   72.4    25    268.3    33.0   999.0 
  57   14:00    0.0    18   70.4    19    267.3    37.7   999.0 
  57   14:10    0.0    19   68.7    27    268.7    40.0   999.0 
  57   14:20    0.0    20   66.0    29    265.2    40.0   999.0 
  57   14:30    0.0    20   63.8    36    266.0    51.8   999.0 
  57   14:40    0.0    20   64.3    34    266.7    44.7   999.0 
  57   14:50    0.0    20   65.1    25    267.7    40.0   999.0 
  57   15:00    0.0    20   65.2    30    267.3    42.4   999.0 
  57   15:10    0.0    20   63.0    28    266.9    42.4   999.0 
  57   15:20    0.0    19   63.8    36    266.4    49.4   999.0 
  57   15:30    0.0    19   63.0    39    267.6    56.5   999.0 
  57   15:40    0.0    19   58.7    34    268.1    51.8   999.0 
  57   15:50    0.0    19   59.5    34    268.1    44.7   999.0 
  57   16:00    0.0    19   57.4    34    267.8    51.8   999.0 
  57   16:10    0.0    19   54.6    33    266.8    44.7   999.0 
  57   16:20    0.0    19   53.4    36    267.8    51.8   999.0 
  57   16:30    0.0    18   51.7    32    266.7    47.1   999.0 
  57   16:40    0.0    18   51.9    34    266.8    47.1   999.0 
  57   16:50    0.0    18   51.9    35    265.4    49.4   999.0 
  57   17:00    0.0    17   52.3    37    267.8    47.1   999.0 
  57   17:10    0.0    16   52.0    38    266.5    49.4   999.0 
  57   17:20    0.0    15   51.9    41    267.2    58.8   999.0 
  57   17:30    0.0    14   54.1    39    266.4    56.5   999.0 
  57   17:40    0.0    14   54.0    40    271.2    56.5   999.0 
  57   17:50    0.0    13   53.1    42    270.3    58.8   999.0 
  57   18:00    0.0    12   55.9    42    270.1    58.8   999.0 
  57   18:10    0.0    12   61.2    41    273.1    56.5   999.0 
  57   18:20    0.0    11   56.4    33    277.9    49.4   999.0 
  57   18:30    0.0    11   59.1    33    274.4    47.1   999.0 
  57   18:40    0.0    11   55.4    29    277.1    51.8   999.0 
  57   18:50    0.0    11   55.7    36    276.7    65.9   999.0 
  57   19:00    0.0    11   53.0    43    272.7    63.5   999.0 
  57   19:10    0.0    10   54.3    33    276.5    56.5   999.0 
  57   19:20    0.0    10   53.3    38    268.7    75.3   999.0 
  57   19:30    0.0    10   54.7    35    276.2    56.5   999.0 
  57   19:40    0.0    10   59.9    29    272.4    42.4   999.0 
  57   19:50    0.0    11   65.2    32    271.4    56.5   999.0 
  57   20:00    0.0    10   68.1    30    278.2    47.1   999.0 
  57   20:10    0.0    10   66.9    33    273.4    51.8   999.0 
  57   20:20    0.0    10   68.2    40    276.3    54.1   999.0 
  57   20:30    0.0    10   73.1    29    278.5    47.1   999.0 
  57   20:40    0.0    10   73.5    26    270.8    40.0   999.0 
  57   20:50    0.0    10   73.1    30    275.4    44.7   999.0 
  57   21:00    0.0    10   71.8    36    277.3    47.1   999.0 
  57   21:10    0.0     9   69.3    45    276.2    54.1   999.0 
  57   21:20    0.0     9   69.1    49    272.0    56.5   999.0 
  57   21:30    0.0     9   67.3    48    275.5    56.5   999.0 
  57   21:40    0.0     9   66.3    47    274.2    54.1   999.0 
  57   21:50    0.0     9   69.5    48    271.4    51.8   999.0 
  57   22:00    0.0     9   68.1    49    272.3    54.1   999.0 
  57   22:10    0.0    10   68.9    50    266.8    56.5   999.0 
  57   22:20    0.0     9   70.2    48    265.5    56.5   999.0 
  57   22:30    0.0     9   73.3    54    265.0    65.9   999.0 
  57   22:40    0.0     9   79.7    56    264.8    61.2   999.0 
  57   22:50    0.0     9   81.9    55    264.4    63.5   999.0 
  57   23:00    0.0     9   86.8    55    263.2    65.9   999.0 
  57   23:10    0.0    10   87.9    56    260.8    68.2   999.0 
  57   23:20    0.0    10   87.6    53    262.7    65.9   999.0 
  57   23:30    0.0    10   87.3    56    261.0    68.2   999.0 
  57   23:40    0.0    10   87.0    52    262.3    61.2   999.0 
  57   23:50    0.0    10   86.8    49    264.6    58.8   999.0 
  58    0:00    0.0    10   86.8    47    260.3    54.1   999.0 
  58    0:10    0.0    10   86.6    43    260.3    49.4   999.0 
  58    0:20    0.0    10   86.5    41    260.9    47.1   999.0 
  58    0:30    0.0    10   86.5    39    261.6    47.1   999.0 
  58    0:40    0.0    10   86.5    40    261.4    44.7   999.0 
  58    0:50    0.0    10   86.5    38    262.1    44.7   999.0 
  58    1:00    0.0    10   86.5    40    262.5    47.1   999.0 
  58    1:10    0.0    10   86.5    39    261.8    44.7   999.0 
  58    1:20    0.0    11   86.6    38    261.2    44.7   999.0 
  58    1:30    0.0    11   86.6    37    260.6    42.4   999.0 
  58    1:40    0.0    11   86.6    34    264.3    44.7   999.0 
  58    1:50    0.0    11   86.6    34    264.2    42.4   999.0 
  58    2:00    0.0    11   86.6    31    261.6    37.7   999.0 
  58    2:10    0.0    10   86.6    30    265.6    37.7   999.0 
  58    2:20    0.0    10   86.6    32    267.3    40.0   999.0 
  58    2:30    0.0    10   86.5    31    270.2    35.3   999.0 
  58    2:40    0.0    10   86.6    30    271.2    37.7   999.0 
  58    2:50    0.0    10   86.5    27    270.1    35.3   999.0 
  58    3:00    0.0    10   86.5    25    265.9    30.6   999.0 
  58    3:10    0.0    10   86.4    26    273.2    30.6   999.0 
  58    3:20    0.0    10   86.4    25    270.5    28.2   999.0 
  58    3:30    0.0     9   86.3    24    276.3    30.6   999.0 
  58    3:40    0.0     9   86.3    24    274.8    28.2   999.0 
  58    3:50    0.0     9   86.3    22    283.4    25.9   999.0 
  58    4:00    0.0     9   86.2    22    284.1    25.9   999.0 
  58    4:10    0.0     9   86.2    20    273.3    25.9   999.0 
  58    4:20    0.0     9   86.2    21    268.1    25.9   999.0 
  58    4:30    0.0     9   86.2    22    269.5    25.9   999.0 
  58    4:40    0.0     9   86.2    21    280.1    28.2   999.0 
  58    4:50    0.0     9   86.2    20    279.8    25.9   999.0 
  58    5:00    0.0     9   86.1    17    285.8    21.2   999.0 
  58    5:10    0.0     8   86.1    14    286.3    18.8   999.0 
  58    5:20    0.0     8   86.1    14    292.0    16.5   999.0 
  58    5:30    0.0     8   86.1    10    295.1    14.1   999.0 
  58    5:40    0.0     8   86.0    12    294.3    18.8   999.0 
  58    5:50    0.0     8   86.1    14    295.7    18.8   999.0 
  58    6:00    0.0     8   86.0    15    298.8    18.8   999.0 
  58    6:10    0.0     8   86.0    15    293.5    18.8   999.0 
  58    6:20    0.0     8   86.1    14    293.4    16.5   999.0 
  58    6:30    0.0     8   86.0    15    285.2    18.8   999.0 
  58    6:40    0.0     8   86.1    17    274.9    18.8   999.0 
  58    6:50    0.0     8   86.0    16    288.9    18.8   999.0 
  58    7:00    0.0     8   85.9    16    286.0    21.2   999.0 
  58    7:10    0.0     8   86.0    15    307.2    18.8   999.0 
  58    7:20    0.0     8   85.9    16    280.0    18.8   999.0 
  58    7:30    0.0     8   85.9    15    289.2    18.8   999.0 
  58    7:40    0.0     8   86.0    16    279.3    21.2   999.0 
  58    7:50    0.0     8   86.0    15    286.0    21.2   999.0 
  58    8:00    0.0     8   85.9    17    318.3    21.2   999.0 
  58    8:10    0.0     8   85.8    14    282.1    18.8   999.0 
  58    8:20    0.0     8   85.9    14    315.8    18.8   999.0 
  58    8:30    0.0     8   85.9    11    288.9    14.1   999.0 
  58    8:40    0.0     8   85.8    14    247.0    16.5   999.0 
  58    8:50    0.0     8   85.8    14    246.6    16.5   999.0 
  58    9:00    0.0     8   85.8    12    245.6    14.1   999.0 
  58    9:10    0.0     8   85.8    12    245.5    16.5   999.0 
  58    9:20    0.0     8   85.7    12    245.5    16.5   999.0 
  58    9:30    0.0     8   85.8    11    243.1    14.1   999.0 

Return to White Mountain graphs page.


Western Regional Climate Center,wrcc@dri.edu